To NAV CANADA Home Page Login to a new session Search on AWWS site Feedback and Comments Disclaimer Vers la page française équivalente Tips FAQ What's new on the site To the Forecasts and Observations / NOTAM section To "File a Flight Plan" website Publications and other links Update of the User's profile FIC Telephone Numbers My Weather Data Folder Route Weather Data Regional Weather Data Local Weather Data To the Forecasts and Observations / NOTAM section
Request Generated 02/24/2017 at 03:37:19 UTC . Weather information available at that time is displayed.

METAR/TAF

EUREKA/NU    

METAR CWEU 240300Z 07003KT 15SM IC SKC M39/M43 A3013 RMK LAST
OBS/NEXT 240600Z SLP206=
METAR CWEU 240200Z 10004KT 15SM IC SKC M40/M44 A3015 RMK SLP213=
METAR CWEU 240100Z 12004KT 080V150 15SM IC SKC M39/M43 A3016 RMK
SLP217=

*** REMARK        : Forecast period has ended; this was the last TAF issued
*** REMARQUE : La période de prévision est échue; ceci était le dernier TAF qui a été émis
TAF CYEU 232341Z 2400/2402 ADVISORY OFFSITE VRB03KT P6SM IC FEW120
RMK NXT FCST WILL BE ISSUED AT 241045Z=
Your time UTC time
Weather data provided by Environment Canada and NAV CANADA